Time;durP1;ratioP1;P1;durP2;ratioP2;P2;SDS_P1;SDS_P2;PMS_P1;PMS_P2;Temp;Humidity;BMP_temperature;BMP_pressure;BME280_temperature;BME280_humidity;BME280_pressure;Samples;Min_cycle;Max_cycle;Signal;HPM_P1;HPM_P2
2023/11/02 00:00:34;;;;;;;0.60;0.40;;;;;;;8.86;100.00;97220.25;5007504;28;20037;-74
2023/11/02 00:03:04;;;;;;;2.92;0.40;;;;;;;8.54;100.00;97190.88;5028212;28;20070;-75
2023/11/02 00:05:47;;;;;;;1.35;0.45;;;;;;;8.48;100.00;97204.44;5023050;28;20029;-76
2023/11/02 00:08:12;;;;;;;0.50;0.32;;;;;;;8.32;100.00;97187.00;5022608;28;20060;-75
2023/11/02 00:10:38;;;;;;;0.65;0.38;;;;;;;8.29;100.00;97180.19;5015903;28;20136;-76
2023/11/02 00:13:05;;;;;;;1.73;0.47;;;;;;;8.11;100.00;97186.44;5020608;28;20271;-75
2023/11/02 00:15:30;;;;;;;1.98;0.30;;;;;;;7.94;100.00;97182.75;5009545;28;20022;-74
2023/11/02 00:18:00;;;;;;;0.47;0.35;;;;;;;7.89;100.00;97187.97;5021058;28;20025;-75
2023/11/02 00:20:31;;;;;;;3.38;0.55;;;;;;;7.84;100.00;97179.75;5023975;28;20026;-75
2023/11/02 00:22:57;;;;;;;2.72;0.57;;;;;;;7.83;100.00;97178.94;5015497;28;20080;-75
2023/11/02 00:25:46;;;;;;;1.05;0.45;;;;;;;7.81;100.00;97161.38;5007417;28;20022;-76
2023/11/02 00:28:11;;;;;;;1.40;0.60;;;;;;;7.73;100.00;97148.19;5024214;28;20030;-75
2023/11/02 00:30:37;;;;;;;2.08;0.50;;;;;;;7.78;100.00;97132.19;5004018;28;20026;-75
2023/11/02 00:33:03;;;;;;;0.43;0.40;;;;;;;7.72;100.00;97125.03;4998308;28;20021;-75
2023/11/02 00:35:28;;;;;;;0.65;0.30;;;;;;;7.67;100.00;97123.81;5020477;28;20223;-77
2023/11/02 00:37:54;;;;;;;1.20;0.50;;;;;;;7.59;100.00;97126.81;5018772;28;20022;-77
2023/11/02 00:40:19;;;;;;;1.30;0.30;;;;;;;7.65;100.00;97142.09;5018892;28;20037;-77
2023/11/02 00:42:45;;;;;;;0.65;0.30;;;;;;;7.76;100.00;97131.63;5034290;28;20033;-75
2023/11/02 00:45:11;;;;;;;0.85;0.55;;;;;;;7.67;100.00;97123.81;5024459;28;20052;-75
2023/11/02 00:47:36;;;;;;;0.30;0.30;;;;;;;7.47;100.00;97101.72;5024998;28;20025;-76
2023/11/02 00:50:02;;;;;;;0.93;0.45;;;;;;;7.50;100.00;97101.28;4999879;28;20033;-74
2023/11/02 00:52:28;;;;;;;0.82;0.40;;;;;;;7.48;100.00;97087.22;5007408;28;20034;-75
2023/11/02 00:54:57;;;;;;;0.47;0.40;;;;;;;7.67;100.00;97080.75;5022856;28;20080;-75
2023/11/02 00:57:28;;;;;;;0.55;0.25;;;;;;;7.93;100.00;97057.22;5004867;28;20403;-75
2023/11/02 00:59:57;;;;;;;0.77;0.38;;;;;;;8.21;100.00;97047.69;5015418;28;20025;-76
2023/11/02 01:02:22;;;;;;;0.55;0.40;;;;;;;8.22;100.00;97027.78;5032197;28;20032;-75
2023/11/02 01:04:53;;;;;;;0.30;0.20;;;;;;;8.53;100.00;97050.94;5024241;28;20021;-76
2023/11/02 01:07:19;;;;;;;0.77;0.28;;;;;;;8.27;100.00;97027.91;5020872;28;20025;-75
2023/11/02 01:09:47;;;;;;;1.33;0.50;;;;;;;8.25;100.00;97046.16;5024845;28;20029;-74
2023/11/02 01:12:36;;;;;;;0.75;0.60;;;;;;;8.09;100.00;97036.88;5004148;28;20055;-75
2023/11/02 01:15:05;;;;;;;1.67;0.55;;;;;;;8.24;100.00;97033.75;5017881;28;20057;-76
2023/11/02 01:17:35;;;;;;;1.20;0.50;;;;;;;8.44;100.00;97045.06;5022887;28;20025;-75
2023/11/02 01:20:10;;;;;;;0.75;0.32;;;;;;;8.51;100.00;97039.56;5017692;28;20128;-77
2023/11/02 01:22:52;;;;;;;1.20;0.50;;;;;;;8.44;100.00;97045.06;5021258;28;20022;-76
2023/11/02 01:25:19;;;;;;;5.03;0.63;;;;;;;8.28;100.00;97027.69;5008430;28;20032;-77
2023/11/02 01:27:46;;;;;;;1.65;0.38;;;;;;;8.35;100.00;97011.38;5034124;28;20155;-75
2023/11/02 01:30:17;;;;;;;0.38;0.30;;;;;;;8.78;100.00;97000.28;5016415;28;20227;-75
2023/11/02 01:32:42;;;;;;;2.75;0.40;;;;;;;8.98;100.00;96956.75;5031318;28;20025;-75
2023/11/02 01:35:09;;;;;;;1.55;0.28;;;;;;;9.36;100.00;96976.94;5006278;28;20033;-75
2023/11/02 01:37:35;;;;;;;0.77;0.38;;;;;;;9.61;100.00;96951.47;5031197;28;20096;-76
2023/11/02 01:40:18;;;;;;;0.50;0.38;;;;;;;9.69;100.00;96948.38;5006258;28;20018;-75
2023/11/02 01:42:45;;;;;;;2.33;0.30;;;;;;;9.69;100.00;96923.25;5021814;28;20080;-77
2023/11/02 01:45:18;;;;;;;0.82;0.40;;;;;;;9.72;100.00;96915.50;5028976;28;20267;-75
2023/11/02 01:48:01;;;;;;;1.20;0.30;;;;;;;9.87;100.00;96929.22;5015790;28;20405;-77
2023/11/02 01:50:35;;;;;;;0.80;0.25;;;;;;;9.83;100.00;96919.19;5017276;28;20025;-76
2023/11/02 01:53:27;;;;;;;4.80;0.77;;;;;;;9.89;100.00;96918.19;5004403;28;20048;-75
2023/11/02 01:56:16;;;;;;;2.20;0.30;;;;;;;9.83;100.00;96911.91;5005905;28;20025;-75
2023/11/02 01:58:49;;;;;;;1.58;0.40;;;;;;;9.85;100.00;96880.06;5024019;28;20084;-76
2023/11/02 02:01:34;;;;;;;1.88;0.45;;;;;;;9.96;100.00;96877.53;5028163;28;20025;-75
2023/11/02 02:04:24;;;;;;;0.80;0.30;;;;;;;9.91;100.00;96880.16;5017497;28;20026;-76
2023/11/02 02:06:57;;;;;;;0.98;0.30;;;;;;;9.83;100.00;96873.28;5006041;28;20028;-76
2023/11/02 02:09:53;;;;;;;4.53;0.60;;;;;;;9.80;100.00;96879.16;5023503;28;20032;-75
2023/11/02 02:12:37;;;;;;;1.75;0.35;;;;;;;9.77;100.00;96876.94;5014195;28;20100;-76
2023/11/02 02:15:22;;;;;;;1.33;0.40;;;;;;;9.78;100.00;96874.00;5003679;28;20223;-76
2023/11/02 02:17:58;;;;;;;0.68;0.45;;;;;;;9.73;100.00;96868.50;5016052;28;20085;-76
2023/11/02 02:20:31;;;;;;;2.65;0.55;;;;;;;9.67;100.00;96856.00;5030324;28;20096;-76
2023/11/02 02:23:25;;;;;;;0.52;0.35;;;;;;;9.73;100.00;96859.59;5019319;28;20085;-76
2023/11/02 02:25:52;;;;;;;0.70;0.35;;;;;;;9.76;100.00;96857.22;5008840;28;20042;-76
2023/11/02 02:28:31;;;;;;;1.35;0.30;;;;;;;9.75;100.00;96835.88;5029965;28;20352;-76
2023/11/02 02:31:19;;;;;;;0.98;0.45;;;;;;;9.92;100.00;96828.56;5006398;28;20104;-76
2023/11/02 02:33:54;;;;;;;6.28;1.38;;;;;;;10.06;100.00;96831.72;5000961;28;20032;-76
2023/11/02 02:36:33;;;;;;;1.20;0.30;;;;;;;10.09;100.00;96815.03;5004763;28;20035;-76
2023/11/02 02:39:07;;;;;;;0.95;0.60;;;;;;;10.08;100.00;96806.09;5017673;28;20025;-76
2023/11/02 02:41:43;;;;;;;1.13;0.35;;;;;;;10.18;100.00;96804.59;5026781;28;20423;-76
2023/11/02 02:44:09;;;;;;;0.70;0.38;;;;;;;10.21;100.00;96802.22;5016815;28;20319;-77
2023/11/02 02:46:37;;;;;;;1.27;0.35;;;;;;;10.24;100.00;96796.34;5035520;28;20030;-76
2023/11/02 02:49:03;;;;;;;1.55;0.40;;;;;;;10.16;100.00;96771.63;5012327;28;20037;-76
2023/11/02 02:51:30;;;;;;;1.70;0.40;;;;;;;10.15;100.00;96776.19;5030720;28;20030;-78
2023/11/02 02:54:01;;;;;;;1.42;0.40;;;;;;;10.15;100.00;96773.50;4996896;28;20064;-76
2023/11/02 02:56:28;;;;;;;1.48;0.40;;;;;;;10.21;100.00;96772.50;5020841;28;20101;-76
2023/11/02 02:59:01;;;;;;;1.65;0.52;;;;;;;10.17;100.00;96767.84;5034668;28;20025;-78
2023/11/02 03:01:29;;;;;;;0.65;0.30;;;;;;;10.08;100.00;96762.06;5029114;28;20029;-76
2023/11/02 03:03:57;;;;;;;2.95;0.50;;;;;;;10.00;100.00;96755.19;5026797;28;20040;-76
2023/11/02 03:06:25;;;;;;;2.05;0.30;;;;;;;9.99;100.00;96742.75;4998016;28;20026;-77
2023/11/02 03:08:51;;;;;;;0.38;0.30;;;;;;;10.00;100.00;96752.50;5005475;28;20056;-76
2023/11/02 03:11:18;;;;;;;2.75;0.50;;;;;;;10.02;100.00;96768.47;5019879;28;20025;-77
2023/11/02 03:13:46;;;;;;;0.73;0.35;;;;;;;10.03;100.00;96757.41;5030759;28;20045;-77
2023/11/02 03:16:13;;;;;;;1.52;0.22;;;;;;;10.04;100.00;96758.22;5003887;28;20026;-77
2023/11/02 03:18:39;;;;;;;5.10;0.50;;;;;;;9.96;100.00;96751.38;5020528;28;20080;-78
2023/11/02 03:21:05;;;;;;;1.20;0.40;;;;;;;9.97;100.00;96753.00;5020494;28;20028;-77
2023/11/02 03:23:44;;;;;;;0.70;0.40;;;;;;;9.92;100.00;96742.13;4996134;28;20026;-78
2023/11/02 03:26:22;;;;;;;0.60;0.30;;;;;;;9.88;100.00;96765.31;5032520;28;20091;-76
2023/11/02 03:29:06;;;;;;;2.58;0.38;;;;;;;9.84;100.00;96737.16;5016753;28;20026;-76
2023/11/02 03:31:31;;;;;;;1.02;0.40;;;;;;;9.91;100.00;96720.78;5000833;28;20204;-76
2023/11/02 03:34:15;;;;;;;1.10;0.35;;;;;;;9.85;100.00;96754.97;5000726;28;20032;-78
2023/11/02 03:36:47;;;;;;;1.13;0.55;;;;;;;10.05;100.00;96770.66;5009088;28;20030;-76
2023/11/02 03:39:43;;;;;;;2.70;0.90;;;;;;;9.91;100.00;96747.78;5019777;28;20063;-76
2023/11/02 03:42:30;;;;;;;0.65;0.35;;;;;;;9.87;100.00;96772.56;5033517;28;20346;-77
2023/11/02 03:45:25;;;;;;;1.20;0.60;;;;;;;9.76;100.00;96743.00;5020641;28;20092;-77
2023/11/02 03:48:14;;;;;;;0.95;0.50;;;;;;;9.56;100.00;96744.34;5039605;28;20093;-77
2023/11/02 03:50:42;;;;;;;;;;;;;;;9.54;100.00;96754.56;5025977;28;20017;-76
2023/11/02 03:53:28;;;;;;;0.60;0.40;;;;;;;9.55;100.00;96739.19;5014919;28;19906;-77
2023/11/02 03:56:00;;;;;;;1.85;0.57;;;;;;;9.59;100.00;96721.44;5025566;28;20018;-76
2023/11/02 03:58:34;;;;;;;1.95;0.57;;;;;;;9.54;100.00;96708.66;5011969;28;20056;-77
2023/11/02 04:01:20;;;;;;;1.17;0.40;;;;;;;9.44;100.00;96712.03;5008098;28;20053;-77
2023/11/02 04:03:49;;;;;;;3.60;0.60;;;;;;;9.35;100.00;96685.69;5033550;28;20061;-76
2023/11/02 04:06:20;;;;;;;;;;;;;;;9.33;100.00;96704.03;5008037;28;20056;-78
2023/11/02 04:08:49;;;;;;;2.28;0.38;;;;;;;9.04;100.00;96669.06;5024608;28;19964;-77
2023/11/02 04:11:14;;;;;;;;;;;;;;;9.08;100.00;96696.34;5008284;28;20101;-77
2023/11/02 04:13:48;;;;;;;1.20;0.50;;;;;;;8.83;100.00;96678.72;5042742;28;19912;-78
2023/11/02 04:16:13;;;;;;;1.38;0.60;;;;;;;8.65;100.00;96660.06;5008552;28;20028;-81
2023/11/02 04:18:39;;;;;;;1.23;0.50;;;;;;;8.39;100.00;96597.66;5009162;28;20017;-81
2023/11/02 04:21:05;;;;;;;1.58;0.47;;;;;;;8.48;100.00;96608.84;5006531;28;20017;-78
2023/11/02 04:23:31;;;;;;;1.23;0.50;;;;;;;8.46;100.00;96582.16;5007171;28;20022;-80
2023/11/02 04:28:44;;;;;;;1.67;0.70;;;;;;;8.72;100.00;96586.06;5030443;28;20032;-80
2023/11/02 04:31:09;;;;;;;2.92;0.77;;;;;;;8.67;100.00;96550.94;4999677;28;20038;-81
2023/11/02 04:33:35;;;;;;;3.97;1.17;;;;;;;8.74;100.00;96550.75;5012204;28;20386;-80
2023/11/02 04:36:00;;;;;;;1.52;0.80;;;;;;;8.47;100.00;96484.06;5013737;28;20040;-78
2023/11/02 04:38:27;;;;;;;3.10;0.90;;;;;;;8.65;100.00;96498.34;5008546;28;20022;-77
2023/11/02 04:40:55;;;;;;;1.20;0.70;;;;;;;8.41;100.00;96458.13;5013753;28;20041;-78
2023/11/02 04:43:21;;;;;;;1.30;0.60;;;;;;;8.45;100.00;96453.84;5006344;28;20030;-77
2023/11/02 04:45:46;;;;;;;1.35;0.88;;;;;;;8.75;100.00;96493.06;5013083;28;20243;-79
2023/11/02 04:48:12;;;;;;;2.55;0.80;;;;;;;8.56;100.00;96455.63;5012316;28;20030;-77
2023/11/02 04:50:38;;;;;;;0.88;0.55;;;;;;;8.88;100.00;96473.88;5012234;28;20022;-79
2023/11/02 04:53:03;;;;;;;2.58;0.63;;;;;;;8.50;100.00;96404.63;5011023;28;20036;-77
2023/11/02 04:55:28;;;;;;;1.55;0.60;;;;;;;8.69;100.00;96424.00;5009722;28;20028;-78
2023/11/02 04:57:54;;;;;;;1.05;0.65;;;;;;;8.44;100.00;96363.31;5037480;28;20044;-79
2023/11/02 05:00:19;;;;;;;1.80;0.90;;;;;;;9.07;100.00;96438.50;5020676;28;20068;-80
2023/11/02 05:02:45;;;;;;;1.65;0.60;;;;;;;9.15;100.00;96419.16;5008701;28;20018;-78
2023/11/02 05:05:10;;;;;;;1.05;0.57;;;;;;;9.29;100.00;96419.56;5016204;28;20059;-78
2023/11/02 05:07:35;;;;;;;3.97;0.60;;;;;;;9.27;100.00;96419.00;5009129;28;20029;-84
2023/11/02 05:10:03;;;;;;;1.58;0.70;;;;;;;9.43;100.00;96437.81;5009024;28;20093;-83
2023/11/02 05:12:33;;;;;;;1.23;0.60;;;;;;;9.46;100.00;96439.19;5009138;28;20038;-76
2023/11/02 05:14:58;;;;;;;4.47;0.73;;;;;;;9.60;100.00;96440.41;5003827;28;20017;-77
2023/11/02 05:17:24;;;;;;;3.95;0.88;;;;;;;9.62;100.00;96419.38;5023019;28;20028;-75
2023/11/02 05:19:49;;;;;;;1.63;0.98;;;;;;;9.64;100.00;96394.81;5020210;28;20055;-79
2023/11/02 05:22:14;;;;;;;2.08;0.68;;;;;;;9.79;100.00;96415.72;5020071;28;20468;-80
2023/11/02 05:24:40;;;;;;;1.67;0.68;;;;;;;9.76;100.00;96421.66;5027679;28;20029;-80
2023/11/02 05:27:06;;;;;;;1.50;0.38;;;;;;;9.57;100.00;96391.53;5006109;28;20030;-83
2023/11/02 05:29:31;;;;;;;1.02;0.70;;;;;;;9.69;100.00;96400.25;5023342;28;20049;-72
2023/11/02 05:31:57;;;;;;;1.88;0.70;;;;;;;9.57;100.00;96359.13;5021518;28;20034;-82
2023/11/02 05:34:22;;;;;;;1.65;0.80;;;;;;;9.53;100.00;96334.53;5010232;28;20045;-79
2023/11/02 05:36:48;;;;;;;3.03;0.57;;;;;;;9.72;100.00;96309.81;5024225;28;20057;-76
2023/11/02 05:39:13;;;;;;;4.10;0.60;;;;;;;9.82;100.00;96301.78;5027272;28;20323;-81
2023/11/02 05:41:39;;;;;;;1.83;0.57;;;;;;;9.94;100.00;96286.22;5013460;28;20044;-81
2023/11/02 05:44:05;;;;;;;1.33;0.65;;;;;;;10.05;100.00;96300.59;5031130;28;20336;-80
2023/11/02 05:46:31;;;;;;;0.98;0.60;;;;;;;10.15;100.00;96303.34;5024721;28;20026;-81
2023/11/02 05:48:56;;;;;;;0.77;0.47;;;;;;;10.11;100.00;96302.25;5016617;28;20262;-77
2023/11/02 05:51:21;;;;;;;1.70;0.73;;;;;;;10.19;100.00;96317.16;5018254;28;20203;-79
2023/11/02 05:53:47;;;;;;;1.08;0.60;;;;;;;10.43;100.00;96314.88;5027325;28;20022;-75
2023/11/02 05:56:15;;;;;;;1.33;0.40;;;;;;;10.34;100.00;96309.16;5007327;28;20040;-78
2023/11/02 05:58:42;;;;;;;4.30;1.08;;;;;;;10.33;100.00;96326.47;5015428;28;20100;-77
2023/11/02 06:01:09;;;;;;;1.50;0.40;;;;;;;10.42;100.00;96353.78;5007825;28;20021;-79
2023/11/02 06:03:34;;;;;;;2.85;0.50;;;;;;;10.43;100.00;96364.34;5029508;28;20022;-78
2023/11/02 06:05:59;;;;;;;1.38;0.55;;;;;;;10.52;100.00;96354.66;5023925;28;20033;-79
2023/11/02 06:08:25;;;;;;;1.38;0.85;;;;;;;10.53;100.00;96350.06;5033734;28;20037;-76
2023/11/02 06:10:50;;;;;;;5.07;0.80;;;;;;;10.58;100.00;96385.22;5022283;28;20201;-73
2023/11/02 06:13:15;;;;;;;1.42;0.60;;;;;;;10.49;100.00;96403.03;5049870;28;20021;-80
2023/11/02 06:15:41;;;;;;;0.93;0.40;;;;;;;10.42;100.00;96386.22;5012113;28;20067;-81
2023/11/02 06:18:06;;;;;;;2.28;0.63;;;;;;;10.27;100.00;96376.97;5003148;28;20051;-74
2023/11/02 06:20:32;;;;;;;0.93;0.50;;;;;;;10.26;100.00;96431.22;5006869;28;20072;-76
2023/11/02 06:22:58;;;;;;;1.17;0.50;;;;;;;10.22;100.00;96457.97;5023052;28;20043;-75
2023/11/02 06:25:24;;;;;;;1.45;0.60;;;;;;;10.16;100.00;96501.41;5006270;28;20316;-84
2023/11/02 06:27:50;;;;;;;3.15;0.50;;;;;;;9.84;100.00;96511.09;5005271;28;20093;-81
2023/11/02 06:30:15;;;;;;;1.92;0.68;;;;;;;9.82;100.00;96547.53;5002482;28;20030;-70
2023/11/02 06:32:40;;;;;;;4.15;0.77;;;;;;;9.80;100.00;96555.91;5030780;28;20025;-70
2023/11/02 06:35:06;;;;;;;0.82;0.43;;;;;;;9.67;100.00;96553.59;5021603;28;20222;-70
2023/11/02 06:37:31;;;;;;;0.98;0.52;;;;;;;9.49;100.00;96552.03;5022288;28;20045;-70
2023/11/02 06:39:57;;;;;;;2.63;0.60;;;;;;;9.31;100.00;96561.25;5021512;28;20033;-70
2023/11/02 06:42:24;;;;;;;2.60;0.80;;;;;;;8.88;100.00;96564.72;5030395;28;20089;-70
2023/11/02 06:44:50;;;;;;;2.17;1.00;;;;;;;8.62;100.00;96541.94;5002217;28;20021;-70
2023/11/02 06:47:15;;;;;;;1.48;0.90;;;;;;;8.47;100.00;96543.34;5005741;28;20068;-69
2023/11/02 06:49:41;;;;;;;2.90;1.00;;;;;;;8.37;100.00;96556.63;5001581;28;20045;-77
2023/11/02 06:52:07;;;;;;;2.67;0.75;;;;;;;8.20;100.00;96542.31;5016225;28;20063;-77
2023/11/02 06:54:32;;;;;;;2.55;1.02;;;;;;;8.15;100.00;96536.84;5011948;28;20227;-84
2023/11/02 06:56:59;;;;;;;1.73;0.88;;;;;;;8.08;100.00;96542.41;5006824;28;20077;-78
2023/11/02 06:59:24;;;;;;;2.45;1.13;;;;;;;8.07;100.00;96530.81;5003107;28;20029;-78
2023/11/02 07:01:52;;;;;;;4.07;1.20;;;;;;;8.14;100.00;96546.81;5005559;28;20074;-77
2023/11/02 07:04:18;;;;;;;4.53;1.50;;;;;;;8.13;100.00;96531.72;5012032;28;20026;-76
2023/11/02 07:06:43;;;;;;;4.35;1.10;;;;;;;8.13;100.00;96532.53;5004288;28;20032;-78
2023/11/02 07:09:08;;;;;;;5.25;1.15;;;;;;;8.25;100.00;96531.63;5004705;28;20147;-77
2023/11/02 07:11:34;;;;;;;3.33;1.20;;;;;;;8.20;100.00;96510.84;5021854;28;20026;-76
2023/11/02 07:13:59;;;;;;;2.72;1.00;;;;;;;8.19;100.00;96500.28;5006570;28;20022;-77
2023/11/02 07:16:25;;;;;;;4.45;1.48;;;;;;;8.25;100.00;96486.69;5026250;28;20049;-77
2023/11/02 07:18:50;;;;;;;2.58;0.80;;;;;;;8.30;100.00;96480.53;5012802;28;20029;-79
2023/11/02 07:21:16;;;;;;;5.28;0.77;;;;;;;8.34;100.00;96487.88;5003588;28;20075;-75
2023/11/02 07:23:41;;;;;;;3.50;1.20;;;;;;;8.30;100.00;96485.91;5025349;28;20274;-83
2023/11/02 07:26:09;;;;;;;2.70;0.80;;;;;;;8.31;100.00;96476.78;5013841;28;20017;-77
2023/11/02 07:28:35;;;;;;;1.48;0.50;;;;;;;8.44;100.00;96476.47;4999855;28;20029;-80
2023/11/02 07:31:02;;;;;;;1.77;0.60;;;;;;;8.49;100.00;96468.47;5024912;28;20070;-76
2023/11/02 07:33:27;;;;;;;2.45;0.60;;;;;;;8.34;100.00;96443.97;5024339;28;20042;-78
2023/11/02 07:35:52;;;;;;;2.80;0.93;;;;;;;8.41;100.00;96454.59;5002586;28;20058;-78
2023/11/02 07:38:18;;;;;;;1.13;0.63;;;;;;;8.48;100.00;96460.63;5008024;28;20030;-74
2023/11/02 07:40:43;;;;;;;2.05;0.70;;;;;;;8.51;100.00;96455.56;5011853;28;20374;-79
2023/11/02 07:43:09;;;;;;;3.05;0.77;;;;;;;8.44;100.00;96454.13;5015887;28;20036;-79
2023/11/02 07:45:34;;;;;;;3.05;0.85;;;;;;;8.41;100.00;96444.66;5008870;28;20053;-78
2023/11/02 07:48:01;;;;;;;1.23;0.88;;;;;;;8.47;100.00;96446.34;5030027;28;20029;-83
2023/11/02 07:50:26;;;;;;;2.15;0.85;;;;;;;8.34;100.00;96408.94;5015097;28;20037;-80
2023/11/02 07:52:51;;;;;;;1.98;0.60;;;;;;;8.40;100.00;96397.19;5010637;28;20029;-80
2023/11/02 07:55:17;;;;;;;3.72;0.88;;;;;;;8.52;100.00;96392.53;5027155;28;20323;-80
2023/11/02 07:57:42;;;;;;;1.23;0.52;;;;;;;8.31;100.00;96355.56;5025559;28;20097;-79
2023/11/02 08:00:08;;;;;;;2.17;0.50;;;;;;;8.50;100.00;96377.66;5007210;28;20021;-76
2023/11/02 08:02:34;;;;;;;3.33;0.50;;;;;;;8.46;100.00;96366.59;5024629;28;20017;-77
2023/11/02 08:04:59;;;;;;;1.83;0.80;;;;;;;8.52;100.00;96370.16;5021848;28;20022;-80
2023/11/02 08:07:24;;;;;;;0.82;0.50;;;;;;;8.51;100.00;96368.50;5005048;28;20105;-78
2023/11/02 08:09:50;;;;;;;1.98;0.80;;;;;;;8.50;100.00;96383.88;5029520;28;20254;-79
2023/11/02 08:12:16;;;;;;;5.68;0.93;;;;;;;8.52;100.00;96364.75;5026069;28;20022;-78
2023/11/02 08:14:42;;;;;;;5.63;0.73;;;;;;;8.53;100.00;96356.41;5006352;28;20093;-78
2023/11/02 08:17:07;;;;;;;1.08;0.60;;;;;;;8.53;100.00;96334.84;5005286;28;20028;-79
2023/11/02 08:19:32;;;;;;;0.77;0.50;;;;;;;8.68;100.00;96363.06;5002148;28;20026;-79
2023/11/02 08:21:58;;;;;;;1.00;0.57;;;;;;;8.62;100.00;96334.41;5008436;28;20097;-75
2023/11/02 08:24:23;;;;;;;2.55;0.68;;;;;;;8.73;100.00;96333.47;5032142;28;20030;-79
2023/11/02 08:26:48;;;;;;;2.25;0.50;;;;;;;8.73;100.00;96328.91;5007803;28;20045;-76
2023/11/02 08:29:13;;;;;;;0.60;0.50;;;;;;;8.76;100.00;96341.88;5036379;28;20184;-81
2023/11/02 08:31:39;;;;;;;3.80;0.60;;;;;;;8.80;100.00;96331.38;5022786;28;20089;-78
2023/11/02 08:34:05;;;;;;;0.73;0.40;;;;;;;8.83;100.00;96348.94;5004862;28;20407;-81
2023/11/02 08:36:34;;;;;;;1.27;0.60;;;;;;;8.85;100.00;96346.81;5004804;28;20105;-78
2023/11/02 08:38:59;;;;;;;1.23;0.52;;;;;;;8.81;100.00;96343.00;5007978;28;20019;-80
2023/11/02 08:41:27;;;;;;;0.45;0.45;;;;;;;8.94;100.00;96353.41;5007221;28;20386;-80
2023/11/02 08:43:53;;;;;;;1.60;0.50;;;;;;;8.83;100.00;96336.28;5016585;28;20013;-82
2023/11/02 08:46:20;;;;;;;0.88;0.57;;;;;;;8.90;100.00;96350.38;5008423;28;20022;-76
2023/11/02 08:48:51;;;;;;;3.90;0.70;;;;;;;8.92;100.00;96345.53;5005502;28;20026;-77
2023/11/02 08:51:17;;;;;;;1.45;0.70;;;;;;;9.00;100.00;96352.38;4998810;28;20022;-78
2023/11/02 08:53:43;;;;;;;1.98;0.80;;;;;;;9.10;100.00;96348.97;5030481;28;20087;-78
2023/11/02 08:56:09;;;;;;;1.25;0.70;;;;;;;9.14;100.00;96344.69;5009479;28;20447;-78
2023/11/02 08:58:44;;;;;;;2.00;0.60;;;;;;;9.25;100.00;96338.34;5030404;28;20010;-77
2023/11/02 09:01:11;;;;;;;3.08;0.70;;;;;;;9.25;100.00;96334.81;5004644;28;20056;-76
2023/11/02 09:03:38;;;;;;;2.50;1.05;;;;;;;9.29;100.00;96330.53;5019861;28;20021;-75
2023/11/02 09:06:07;;;;;;;2.10;1.08;;;;;;;9.12;100.00;96303.69;5020014;28;20020;-73
2023/11/02 09:08:36;;;;;;;;;;;;;;;9.31;100.00;96323.81;5018344;28;20022;-72
2023/11/02 09:11:02;;;;;;;2.70;0.88;;;;;;;9.35;100.00;96300.66;5018673;28;19972;-77
2023/11/02 09:13:28;;;;;;;2.22;0.70;;;;;;;9.37;100.00;96300.38;5007448;28;20067;-74
2023/11/02 09:15:53;;;;;;;1.73;0.82;;;;;;;9.38;100.00;96313.63;5021238;28;20030;-73
2023/11/02 09:18:20;;;;;;;1.27;0.75;;;;;;;9.42;100.00;96303.13;5008657;28;20330;-73
2023/11/02 09:20:45;;;;;;;3.20;1.02;;;;;;;9.51;100.00;96322.34;5013786;28;20017;-70
2023/11/02 09:23:10;;;;;;;4.18;0.98;;;;;;;9.47;100.00;96303.16;5005656;28;20032;-75
2023/11/02 09:25:36;;;;;;;4.28;1.33;;;;;;;9.51;100.00;96308.84;5021359;28;20025;-72
2023/11/02 09:28:01;;;;;;;2.10;0.68;;;;;;;9.50;100.00;96305.34;5021670;28;20030;-73
2023/11/02 09:30:27;;;;;;;2.67;1.13;;;;;;;9.54;100.00;96306.47;5001502;28;20025;-82
2023/11/02 09:32:52;;;;;;;2.28;0.80;;;;;;;9.39;100.00;96293.66;5000209;28;20045;-77
2023/11/02 09:35:18;;;;;;;2.75;1.00;;;;;;;9.42;100.00;96314.72;5005367;28;20037;-74
2023/11/02 09:37:44;;;;;;;3.63;1.70;;;;;;;9.47;100.00;96343.66;5006498;28;20025;-81
2023/11/02 09:40:10;;;;;;;3.30;1.48;;;;;;;9.47;100.00;96342.84;5010210;28;20271;-80
2023/11/02 09:42:36;;;;;;;3.50;1.02;;;;;;;9.25;100.00;96359.91;5001318;28;20045;-77
2023/11/02 09:45:03;;;;;;;1.52;0.80;;;;;;;9.21;100.00;96381.19;5022228;28;20227;-79
2023/11/02 09:47:29;;;;;;;2.60;0.90;;;;;;;9.15;100.00;96371.41;5013689;28;20033;-78
2023/11/02 09:49:55;;;;;;;3.63;1.05;;;;;;;9.17;100.00;96381.97;5007825;28;20022;-85
2023/11/02 09:52:20;;;;;;;2.35;1.10;;;;;;;9.12;100.00;96395.41;5009873;28;20026;-81
2023/11/02 09:54:47;;;;;;;1.95;0.95;;;;;;;9.24;100.00;96406.84;4999653;28;20022;-79
2023/11/02 09:57:13;;;;;;;3.58;1.30;;;;;;;9.29;100.00;96414.19;5022764;28;20278;-78
2023/11/02 09:59:44;;;;;;;4.78;1.42;;;;;;;9.41;100.00;96423.75;4999958;28;20068;-78
2023/11/02 10:02:11;;;;;;;8.43;2.55;;;;;;;9.46;100.00;96425.69;5004549;28;20032;-78
2023/11/02 10:04:37;;;;;;;6.45;1.60;;;;;;;9.36;100.00;96407.50;5003204;28;20057;-76
2023/11/02 10:07:05;;;;;;;2.35;1.42;;;;;;;9.39;100.00;96407.00;5008014;28;20319;-78
2023/11/02 10:09:31;;;;;;;4.15;1.77;;;;;;;9.46;100.00;96405.97;5002617;28;20021;-76
2023/11/02 10:11:56;;;;;;;2.88;1.48;;;;;;;9.39;100.00;96406.19;5034787;28;20120;-78
2023/11/02 10:14:21;;;;;;;6.65;1.20;;;;;;;9.39;100.00;96401.59;5005113;28;20096;-79
2023/11/02 10:16:46;;;;;;;2.53;0.90;;;;;;;9.50;100.00;96394.41;5005931;28;20040;-80
2023/11/02 10:19:12;;;;;;;2.15;0.90;;;;;;;9.50;100.00;96390.91;5009955;28;20029;-78
2023/11/02 10:21:39;;;;;;;3.42;1.10;;;;;;;9.50;100.00;96385.50;5007218;28;20344;-77
2023/11/02 10:24:05;;;;;;;6.10;1.13;;;;;;;9.55;100.00;96380.16;5004093;28;20327;-77
2023/11/02 10:26:34;;;;;;;5.32;0.80;;;;;;;9.69;100.00;96389.44;5004257;28;20036;-75
2023/11/02 10:29:01;;;;;;;2.00;0.90;;;;;;;9.68;100.00;96384.31;5014730;28;20017;-73
2023/11/02 10:31:30;;;;;;;4.68;1.48;;;;;;;9.65;100.00;96350.56;4997735;28;20345;-74
2023/11/02 10:33:55;;;;;;;;;;;;;;;9.83;100.00;96371.75;5014600;28;20025;-73
2023/11/02 10:36:21;;;;;;;1.80;0.70;;;;;;;9.83;100.00;96349.34;5009159;28;19985;-74
2023/11/02 10:38:49;;;;;;;4.00;1.10;;;;;;;9.80;100.00;96347.19;5014627;28;20018;-74
2023/11/02 10:41:16;;;;;;;2.63;0.70;;;;;;;9.82;100.00;96340.44;5018704;28;20030;-74
2023/11/02 10:43:48;;;;;;;1.67;0.70;;;;;;;9.80;100.00;96326.38;5014003;28;20037;-72
2023/11/02 10:46:15;;;;;;;2.60;0.77;;;;;;;9.93;100.00;96327.81;4999846;28;20231;-72
2023/11/02 10:48:42;;;;;;;7.60;1.10;;;;;;;9.94;100.00;96315.13;5009438;28;20073;-77
2023/11/02 10:51:15;;;;;;;1.42;0.88;;;;;;;10.05;100.00;96314.09;5009368;28;20026;-76
2023/11/02 10:53:48;;;;;;;13.25;1.15;;;;;;;10.04;100.00;96288.19;5011880;28;20026;-70
2023/11/02 10:56:22;;;;;;;0.68;0.50;;;;;;;10.18;100.00;96273.09;5013644;28;20030;-74
2023/11/02 10:58:54;;;;;;;1.02;0.40;;;;;;;10.19;100.00;96253.13;5017924;28;20025;-73
2023/11/02 11:01:20;;;;;;;1.33;0.60;;;;;;;10.24;100.00;96230.72;5015513;28;20112;-75
2023/11/02 11:03:50;;;;;;;0.82;0.40;;;;;;;10.31;100.00;96244.81;5002897;28;20026;-74
2023/11/02 11:06:16;;;;;;;1.35;0.60;;;;;;;10.36;100.00;96246.75;4993821;28;20536;-72
2023/11/02 11:08:43;;;;;;;2.00;0.50;;;;;;;10.36;100.00;96231.34;5015432;28;20089;-71
2023/11/02 11:11:10;;;;;;;1.23;0.70;;;;;;;10.45;100.00;96248.69;4998553;28;20056;-73
2023/11/02 11:13:36;;;;;;;1.00;0.43;;;;;;;10.43;100.00;96231.91;5015003;28;20378;-74
2023/11/02 11:16:04;;;;;;;0.60;0.20;;;;;;;10.60;100.00;96228.97;5019786;28;20357;-74
2023/11/02 11:18:30;;;;;;;2.15;0.20;;;;;;;10.62;100.00;96223.31;5000319;28;20022;-74
2023/11/02 11:20:58;;;;;;;1.13;0.40;;;;;;;10.70;100.00;96210.06;5004428;28;20357;-74
2023/11/02 11:23:23;;;;;;;1.70;0.55;;;;;;;10.77;100.00;96219.78;4999593;28;20029;-72
2023/11/02 11:25:59;;;;;;;1.77;0.63;;;;;;;10.82;100.00;96242.28;5017644;28;20239;-71
2023/11/02 11:28:34;;;;;;;1.13;0.40;;;;;;;10.87;100.00;96241.47;5005101;28;20251;-72
2023/11/02 11:31:00;;;;;;;1.58;0.52;;;;;;;10.82;100.00;96223.34;5016228;28;20032;-73
2023/11/02 11:33:47;;;;;;;1.27;0.60;;;;;;;10.97;100.00;96236.06;5009554;28;20022;-72
2023/11/02 11:36:28;;;;;;;1.25;0.38;;;;;;;10.89;100.00;96242.81;5023453;28;20093;-74
2023/11/02 11:38:55;;;;;;;1.13;0.40;;;;;;;10.82;100.00;96212.53;5012808;28;20365;-74
2023/11/02 11:41:43;;;;;;;1.00;0.40;;;;;;;10.91;100.00;96250.66;5010338;28;20030;-74